Time;durP1;ratioP1;P1;durP2;ratioP2;P2;SDS_P1;SDS_P2;PMS_P1;PMS_P2;Temp;Humidity;BMP_temperature;BMP_pressure;BME280_temperature;BME280_humidity;BME280_pressure;Samples;Min_cycle;Max_cycle;Signal;HPM_P1;HPM_P2
2022/12/29 00:02:14;;;;;;;7.05;5.28;;;10.80;99.90;;;;;;5092579;28;20155;-63
2022/12/29 00:04:40;;;;;;;6.15;5.55;;;;;;;;;;5101564;28;20035;-64
2022/12/29 00:07:07;;;;;;;6.68;5.60;;;;;;;;;;5080231;28;20128;-63
2022/12/29 00:09:33;;;;;;;8.90;6.32;;;;;;;;;;5079065;28;20086;-63
2022/12/29 00:12:00;;;;;;;7.40;6.22;;;10.70;99.90;;;;;;5094179;28;20556;-63
2022/12/29 00:17:11;;;;;;;7.20;5.38;;;;;;;;;;5098421;28;20044;-63
2022/12/29 00:36:06;;;;;;;8.75;5.18;;;;;;;;;;5072261;28;20048;-63
2022/12/29 00:44:05;;;;;;;7.70;4.15;;;;;;;;;;5097972;28;20071;-63
2022/12/29 00:46:35;;;;;;;5.32;4.70;;;11.10;99.90;;;;;;5074696;28;20036;-64
2022/12/29 00:51:45;;;;;;;5.97;4.17;;;;;;;;;;5079688;28;20199;-63
2022/12/29 00:54:12;;;;;;;5.57;4.13;;;;;;;;;;5098604;28;20047;-64
2022/12/29 00:56:37;;;;;;;5.05;4.38;;;11.00;99.90;;;;;;5075690;28;20044;-64
2022/12/29 00:59:08;;;;;;;4.07;3.67;;;11.20;99.90;;;;;;5092027;28;20038;-64
2022/12/29 01:01:35;;;;;;;7.05;3.83;;;;;;;;;;5074179;28;20044;-64
2022/12/29 01:04:01;;;;;;;4.10;3.55;;;;;;;;;;5079079;28;20089;-64
2022/12/29 01:06:27;;;;;;;4.53;3.72;;;;;;;;;;5075024;28;20042;-64
2022/12/29 01:11:38;;;;;;;6.40;4.25;;;10.90;99.90;;;;;;5090038;28;20056;-63
2022/12/29 01:14:04;;;;;;;4.30;3.90;;;;;;;;;;5094356;28;20391;-64
2022/12/29 01:16:30;;;;;;;4.85;3.95;;;;;;;;;;5075924;28;20048;-63
2022/12/29 01:18:56;;;;;;;5.47;4.47;;;11.00;99.90;;;;;;5081822;28;20047;-63
2022/12/29 01:21:22;;;;;;;4.97;3.53;;;;;;;;;;5090661;28;20410;-63
2022/12/29 01:23:48;;;;;;;4.30;3.50;;;;;;;;;;5072212;28;20489;-64
2022/12/29 01:26:15;;;;;;;5.50;3.55;;;;;;;;;;5097372;28;20050;-64
2022/12/29 01:28:41;;;;;;;4.45;3.70;;;;;;;;;;5077380;28;20051;-62
2022/12/29 01:31:08;;;;;;;5.15;3.67;;;11.20;99.90;;;;;;5102475;28;20469;-62
2022/12/29 01:33:34;;;;;;;5.38;3.70;;;;;;;;;;5083454;28;20493;-63
2022/12/29 01:36:01;;;;;;;6.38;3.85;;;;;;;;;;5087279;28;20036;-63
2022/12/29 01:38:27;;;;;;;6.88;3.70;;;;;;;;;;5087323;28;20055;-63
2022/12/29 01:40:53;;;;;;;5.80;3.40;;;;;;;;;;5070456;28;20111;-62
2022/12/29 01:43:19;;;;;;;3.40;3.03;;;;;;;;;;5087365;28;20039;-63
2022/12/29 01:45:49;;;;;;;3.42;2.53;;;;;;;;;;5087174;28;20715;-63
2022/12/29 01:48:15;;;;;;;4.88;3.45;;;;;;;;;;5075646;28;20116;-63
2022/12/29 01:50:51;;;;;;;4.72;3.20;;;11.30;99.90;;;;;;5086510;28;20044;-63
2022/12/29 01:53:26;;;;;;;3.45;2.50;;;;;;;;;;5067372;28;20089;-62
2022/12/29 01:55:55;;;;;;;4.57;2.95;;;;;;;;;;5087233;28;20047;-63
2022/12/29 01:58:23;;;;;;;4.93;3.55;;;11.30;99.90;;;;;;5070148;28;20055;-63
2022/12/29 02:00:49;;;;;;;4.32;3.13;;;;;;;;;;5071058;28;20488;-64
2022/12/29 02:03:16;;;;;;;4.22;3.08;;;;;;;;;;5094071;28;20077;-63
2022/12/29 02:05:46;;;;;;;3.22;2.60;;;;;;;;;;5069739;28;20076;-62
2022/12/29 02:08:13;;;;;;;4.28;2.60;;;11.20;99.90;;;;;;5089802;28;20036;-63
2022/12/29 02:10:40;;;;;;;3.20;2.70;;;11.30;99.90;;;;;;5089460;28;20063;-62
2022/12/29 02:13:06;;;;;;;3.08;2.72;;;;;;;;;;5085296;28;20047;-63
2022/12/29 02:15:54;;;;;;;7.43;2.50;;;11.30;99.90;;;;;;5093805;28;20040;-64
2022/12/29 02:18:20;;;;;;;4.15;2.92;;;;;;;;;;5078460;28;20089;-64
2022/12/29 02:21:17;;;;;;;6.20;2.45;;;11.60;99.90;;;;;;5068010;28;20044;-64
2022/12/29 02:23:42;;;;;;;3.63;2.28;;;11.30;99.90;;;;;;5089463;28;20044;-62
2022/12/29 02:26:28;;;;;;;3.30;2.53;;;;;;;;;;5075446;28;20038;-63
2022/12/29 02:29:12;;;;;;;5.88;2.70;;;11.40;99.90;;;;;;5080412;28;20511;-63
2022/12/29 02:31:59;;;;;;;6.07;2.50;;;;;;;;;;5074827;28;20067;-63
2022/12/29 02:34:51;;;;;;;7.85;2.53;;;11.10;99.90;;;;;;5071021;28;20047;-64
2022/12/29 02:37:24;;;;;;;3.22;1.90;;;11.10;99.90;;;;;;5060105;28;20036;-63
2022/12/29 02:40:08;;;;;;;3.47;1.95;;;11.30;99.90;;;;;;5094847;28;20032;-62
2022/12/29 02:42:48;;;;;;;2.53;2.15;;;11.20;99.90;;;;;;5094327;28;20055;-62
2022/12/29 02:45:32;;;;;;;5.32;2.10;;;;;;;;;;5080476;28;20524;-64
2022/12/29 02:48:30;;;;;;;2.97;2.15;;;11.30;99.90;;;;;;5091759;28;20730;-63
2022/12/29 02:50:56;;;;;;;3.10;1.65;;;;;;;;;;5072428;28;20140;-63
2022/12/29 02:54:40;;;;;;;4.22;2.58;;;;;;;;;;5101976;28;20146;-63
2022/12/29 02:56:09;;;;;;;2.90;1.92;;;;;;;;;;5076079;28;20052;-63
2022/12/29 02:58:35;;;;;;;2.97;2.03;;;;;;;;;;5093196;28;20093;-62
2022/12/29 03:01:07;;;;;;;4.00;1.95;;;;;;;;;;5067536;28;20046;-63
2022/12/29 03:03:44;;;;;;;2.03;1.55;;;;;;;;;;5091173;28;20036;-64
2022/12/29 03:06:29;;;;;;;2.17;1.83;;;;;;;;;;5090662;28;20040;-63
2022/12/29 03:09:17;;;;;;;3.05;1.40;;;11.10;99.90;;;;;;5075349;28;20038;-62
2022/12/29 03:12:10;;;;;;;3.03;1.45;;;11.20;99.90;;;;;;5095463;28;20139;-65
2022/12/29 03:17:57;;;;;;;3.05;1.60;;;11.00;99.90;;;;;;5095970;28;20126;-63
2022/12/29 03:20:27;;;;;;;3.55;1.70;;;11.00;99.90;;;;;;5066141;28;20135;-63
2022/12/29 03:23:00;;;;;;;4.00;1.83;;;11.00;99.90;;;;;;5068541;28;20043;-63
2022/12/29 03:25:28;;;;;;;3.00;1.77;;;;;;;;;;5092758;28;20039;-63
2022/12/29 03:28:00;;;;;;;3.58;1.75;;;;;;;;;;5055902;28;20046;-63
2022/12/29 03:30:29;;;;;;;2.22;1.80;;;11.70;99.90;;;;;;5066894;28;20541;-62
2022/12/29 03:32:57;;;;;;;4.57;1.85;;;;;;;;;;5060493;28;20482;-64
2022/12/29 03:35:25;;;;;;;3.25;2.08;;;;;;;;;;5103622;28;20048;-63
2022/12/29 03:38:11;;;;;;;2.63;2.15;;;11.10;99.90;;;;;;5071713;28;20036;-62
2022/12/29 03:40:38;;;;;;;3.58;1.63;;;;;;;;;;5074385;28;20451;-63
2022/12/29 03:43:05;;;;;;;2.35;1.55;;;;;;;;;;5098693;28;20043;-62
2022/12/29 03:45:31;;;;;;;4.90;1.65;;;11.00;99.90;;;;;;5076479;28;20043;-62
2022/12/29 03:47:57;;;;;;;5.90;1.67;;;;;;;;;;5097361;28;20086;-64
2022/12/29 03:50:23;;;;;;;6.22;2.10;;;;;;;;;;5092780;28;20119;-63
2022/12/29 03:52:48;;;;;;;5.35;2.25;;;;;;;;;;5098603;28;20055;-63
2022/12/29 03:55:14;;;;;;;6.07;2.13;;;;;;;;;;5099949;28;20759;-63
2022/12/29 03:57:40;;;;;;;2.90;1.88;;;;;;;;;;5108662;28;20040;-63
2022/12/29 04:00:07;;;;;;;2.60;1.55;;;;;;;;;;5063487;28;20437;-62
2022/12/29 04:02:33;;;;;;;4.03;1.60;;;;;;;;;;5079023;28;20052;-64
2022/12/29 04:04:59;;;;;;;3.95;1.33;;;;;;;;;;5094771;28;21564;-62
2022/12/29 04:07:25;;;;;;;5.90;1.85;;;;;;;;;;5106624;28;20047;-63
2022/12/29 04:09:51;;;;;;;3.58;1.48;;;;;;;;;;5090085;28;20126;-62
2022/12/29 04:12:17;;;;;;;3.17;1.65;;;;;;;;;;5076484;28;20048;-62
2022/12/29 04:14:43;;;;;;;3.70;1.40;;;;;;;;;;5059462;28;20044;-63
2022/12/29 04:17:09;;;;;;;7.88;1.42;;;;;;;;;;5096888;28;20036;-63
2022/12/29 04:19:35;;;;;;;4.10;1.13;;;;;;;;;;5100218;28;20047;-63
2022/12/29 04:22:01;;;;;;;4.90;1.40;;;;;;;;;;5084223;28;20043;-63
2022/12/29 04:24:26;;;;;;;2.35;1.02;;;10.60;99.90;;;;;;5087210;28;20481;-62
2022/12/29 04:26:52;;;;;;;3.67;0.98;;;;;;;;;;5084742;28;20055;-64
2022/12/29 04:29:18;;;;;;;2.58;1.10;;;;;;;;;;5094770;28;20036;-63
2022/12/29 04:31:44;;;;;;;2.55;0.90;;;;;;;;;;5066687;28;20492;-63
2022/12/29 04:34:10;;;;;;;3.65;1.20;;;;;;;;;;5060805;28;20044;-63
2022/12/29 04:36:36;;;;;;;3.65;1.10;;;;;;;;;;5080811;28;20060;-62
2022/12/29 04:39:04;;;;;;;6.25;1.58;;;;;;;;;;5080576;28;20126;-62
2022/12/29 04:41:31;;;;;;;3.03;1.13;;;;;;;;;;5092885;28;20046;-64
2022/12/29 04:43:57;;;;;;;3.92;1.42;;;;;;;;;;5087148;28;20059;-63
2022/12/29 04:46:23;;;;;;;4.55;1.50;;;;;;;;;;5058635;28;20048;-63
2022/12/29 04:48:49;;;;;;;6.30;1.17;;;;;;;;;;5092878;28;20417;-62
2022/12/29 04:51:15;;;;;;;7.18;2.00;;;;;;;;;;5075550;28;20046;-63
2022/12/29 04:53:41;;;;;;;3.60;1.45;;;;;;;;;;5091923;28;20039;-63
2022/12/29 04:56:07;;;;;;;3.83;1.63;;;;;;;;;;5065591;28;20436;-64
2022/12/29 04:58:33;;;;;;;7.05;2.17;;;;;;;;;;5091092;28;20054;-63
2022/12/29 05:00:59;;;;;;;6.65;1.70;;;;;;;;;;5079835;28;20048;-63
2022/12/29 05:03:25;;;;;;;4.93;1.83;;;;;;;;;;5082359;28;20070;-64
2022/12/29 05:05:53;;;;;;;10.77;2.08;;;;;;;;;;5091928;28;20044;-63
2022/12/29 05:08:20;;;;;;;4.85;1.83;;;;;;;;;;5091745;28;20040;-62
2022/12/29 05:10:46;;;;;;;6.05;1.77;;;;;;;;;;5072934;28;20044;-64
2022/12/29 05:13:12;;;;;;;5.03;3.00;;;;;;;;;;5076254;28;20036;-63
2022/12/29 05:15:38;;;;;;;10.65;2.20;;;;;;;;;;5101551;28;20119;-63
2022/12/29 05:18:04;;;;;;;9.18;1.77;;;;;;;;;;5080923;28;20043;-63
2022/12/29 05:20:30;;;;;;;12.73;1.90;;;;;;;;;;5073155;28;20090;-64
2022/12/29 05:22:56;;;;;;;12.65;2.65;;;;;;;;;;5073788;28;20048;-64
2022/12/29 05:25:22;;;;;;;9.05;2.22;;;;;;;;;;5074323;28;20067;-64
2022/12/29 05:27:48;;;;;;;8.15;1.95;;;;;;;;;;5078598;28;20117;-65
2022/12/29 05:30:14;;;;;;;14.00;2.15;;;;;;;;;;5073897;28;20482;-66
2022/12/29 05:32:40;;;;;;;6.00;1.60;;;;;;;;;;5072727;28;20071;-66
2022/12/29 05:35:06;;;;;;;12.88;2.05;;;;;;;;;;5071358;28;20048;-64
2022/12/29 05:37:32;;;;;;;6.40;1.70;;;;;;;;;;5086911;28;20039;-65
2022/12/29 05:39:59;;;;;;;5.50;2.08;;;;;;;;;;5091361;28;20078;-62
2022/12/29 05:42:25;;;;;;;13.88;2.10;;;;;;;;;;5070255;28;20055;-62
2022/12/29 05:44:53;;;;;;;5.32;1.85;;;;;;;;;;5073623;28;20048;-63
2022/12/29 05:47:19;;;;;;;9.40;2.25;;;10.40;99.90;;;;;;5085809;28;20036;-65
2022/12/29 05:49:45;;;;;;;8.40;2.40;;;;;;;;;;5081244;28;20044;-61
2022/12/29 05:52:11;;;;;;;8.32;1.70;;;;;;;;;;5084368;28;20454;-63
2022/12/29 05:54:37;;;;;;;4.88;1.55;;;;;;;;;;5071051;28;20048;-64
2022/12/29 05:57:03;;;;;;;7.97;1.73;;;;;;;;;;5073400;28;20048;-64
2022/12/29 05:59:29;;;;;;;9.05;2.08;;;;;;;;;;5102458;28;21329;-62
2022/12/29 06:01:54;;;;;;;7.25;2.58;;;10.00;99.90;;;;;;5098718;28;20057;-64
2022/12/29 06:04:20;;;;;;;6.18;2.78;;;9.90;99.90;;;;;;5102877;28;20676;-63
2022/12/29 06:06:46;;;;;;;6.82;1.90;;;;;;;;;;5102407;28;20488;-65
2022/12/29 06:09:11;;;;;;;4.93;1.60;;;;;;;;;;5100134;28;20470;-64
2022/12/29 06:11:37;;;;;;;9.32;2.20;;;;;;;;;;5103473;28;20092;-63
2022/12/29 06:14:03;;;;;;;7.05;1.83;;;;;;;;;;5083186;28;20039;-64
2022/12/29 06:16:29;;;;;;;8.30;2.05;;;;;;;;;;5101804;28;20035;-62
2022/12/29 06:18:55;;;;;;;9.68;1.88;;;;;;;;;;5085834;28;20036;-62
2022/12/29 06:21:21;;;;;;;12.70;4.13;;;9.80;99.90;;;;;;5098521;28;20745;-62
2022/12/29 06:23:47;;;;;;;8.88;2.10;;;;;;;;;;5091624;28;20049;-63
2022/12/29 06:26:13;;;;;;;12.85;1.92;;;;;;;;;;5073319;28;20039;-63
2022/12/29 06:28:39;;;;;;;9.23;1.92;;;;;;;;;;5080221;28;20079;-63
2022/12/29 06:31:05;;;;;;;10.85;2.50;;;;;;;;;;5099327;28;20059;-61
2022/12/29 06:33:30;;;;;;;10.18;2.05;;;9.60;99.90;;;;;;5100023;28;20040;-62
2022/12/29 06:35:56;;;;;;;15.05;2.28;;;;;;;;;;5096325;28;20702;-63
2022/12/29 06:38:22;;;;;;;16.00;2.53;;;;;;;;;;5099928;28;20597;-63
2022/12/29 06:40:48;;;;;;;12.45;2.90;;;;;;;;;;5084694;28;20044;-63
2022/12/29 06:43:14;;;;;;;12.73;2.65;;;;;;;;;;5093150;28;20109;-64
2022/12/29 06:45:40;;;;;;;13.18;1.85;;;9.70;99.90;;;;;;5075538;28;20050;-63
2022/12/29 06:48:07;;;;;;;14.95;3.08;;;9.80;99.90;;;;;;5078012;28;20039;-63
2022/12/29 06:50:33;;;;;;;11.77;2.83;;;;;;;;;;5090306;28;20699;-62
2022/12/29 06:52:59;;;;;;;12.70;2.72;;;;;;;;;;5088775;28;20040;-64
2022/12/29 06:55:25;;;;;;;8.95;2.53;;;;;;;;;;5086116;28;20036;-63
2022/12/29 06:57:53;;;;;;;14.02;2.42;;;10.10;99.90;;;;;;5071904;28;20046;-64
2022/12/29 07:00:19;;;;;;;7.95;2.20;;;;;;;;;;5045851;28;20052;-63
2022/12/29 07:02:46;;;;;;;8.80;3.08;;;;;;;;;;5072177;28;20055;-63
2022/12/29 07:05:13;;;;;;;11.57;2.40;;;;;;;;;;5090151;28;20409;-64
2022/12/29 07:07:39;;;;;;;9.13;2.50;;;;;;;;;;5071299;28;20043;-63
2022/12/29 07:10:05;;;;;;;10.30;2.80;;;;;;;;;;5070918;28;20044;-64
2022/12/29 07:12:31;;;;;;;14.05;2.33;;;;;;;;;;5066425;28;20036;-64
2022/12/29 07:14:57;;;;;;;11.65;2.30;;;;;;;;;;5072077;28;20399;-61
2022/12/29 07:17:23;;;;;;;12.88;2.33;;;;;;;;;;5084893;28;20043;-62
2022/12/29 07:19:49;;;;;;;9.43;2.30;;;;;;;;;;5085869;28;20032;-64
2022/12/29 07:22:15;;;;;;;9.90;2.30;;;;;;;;;;5073045;28;20045;-64
2022/12/29 07:24:42;;;;;;;11.90;2.00;;;;;;;;;;5086658;28;20079;-65
2022/12/29 07:27:08;;;;;;;16.90;2.78;;;10.00;99.90;;;;;;5070684;28;21630;-64
2022/12/29 07:29:34;;;;;;;8.85;2.35;;;10.10;99.90;;;;;;5085837;28;20149;-63
2022/12/29 07:32:00;;;;;;;15.70;2.90;;;;;;;;;;5085286;28;20080;-62
2022/12/29 07:34:26;;;;;;;10.77;2.42;;;;;;;;;;5068236;28;20576;-60
2022/12/29 07:36:52;;;;;;;6.57;2.50;;;;;;;;;;5087505;28;20087;-63
2022/12/29 07:39:18;;;;;;;13.50;2.47;;;;;;;;;;5095143;28;20497;-61
2022/12/29 07:41:44;;;;;;;10.73;2.38;;;;;;;;;;5087874;28;20043;-63
2022/12/29 07:44:09;;;;;;;6.82;1.73;;;10.10;99.90;;;;;;5086662;28;20129;-64
2022/12/29 07:46:35;;;;;;;15.23;3.05;;;;;;;;;;5070202;28;20044;-63
2022/12/29 07:49:01;;;;;;;10.45;2.35;;;;;;;;;;5092228;28;20162;-63
2022/12/29 07:51:27;;;;;;;12.43;3.25;;;;;;;;;;5093126;28;20032;-63
2022/12/29 07:53:53;;;;;;;12.15;2.08;;;;;;;;;;5075971;28;20035;-63
2022/12/29 07:56:19;;;;;;;10.48;2.20;;;10.30;99.90;;;;;;5086789;28;20093;-62
2022/12/29 07:58:45;;;;;;;13.25;3.00;;;;;;;;;;5072447;28;20076;-61
2022/12/29 08:01:11;;;;;;;11.25;2.50;;;;;;;;;;5072282;28;20067;-64
2022/12/29 08:03:36;;;;;;;13.18;2.63;;;;;;;;;;5069076;28;20097;-64
2022/12/29 08:06:03;;;;;;;10.43;2.55;;;;;;;;;;5067426;28;20497;-64
2022/12/29 08:08:29;;;;;;;15.07;2.90;;;;;;;;;;5066066;28;20040;-63
2022/12/29 08:10:55;;;;;;;10.57;2.47;;;;;;;;;;5084831;28;20050;-65
2022/12/29 08:13:20;;;;;;;14.55;2.72;;;;;;;;;;5064734;28;20557;-64
2022/12/29 08:15:46;;;;;;;19.35;3.50;;;;;;;;;;5086435;28;20036;-64
2022/12/29 08:18:12;;;;;;;10.85;2.78;;;;;;;;;;5073400;28;20039;-63
2022/12/29 08:20:38;;;;;;;15.77;3.25;;;;;;;;;;5067215;28;20796;-64
2022/12/29 08:23:04;;;;;;;12.23;2.92;;;;;;;;;;5098897;28;20047;-65
2022/12/29 08:25:30;;;;;;;20.50;3.25;;;;;;;;;;5088539;28;20205;-64
2022/12/29 08:27:56;;;;;;;17.52;3.03;;;;;;;;;;5092201;28;20405;-63
2022/12/29 08:30:23;;;;;;;12.45;3.00;;;;;;;;;;5080159;28;20051;-64
2022/12/29 08:32:49;;;;;;;15.35;3.95;;;;;;;;;;5067051;28;20052;-63
2022/12/29 08:35:15;;;;;;;16.25;3.47;;;;;;;;;;5068819;28;20070;-64
2022/12/29 08:37:41;;;;;;;18.70;2.53;;;;;;;;;;5068298;28;20036;-62
2022/12/29 08:40:07;;;;;;;11.38;2.78;;;;;;;;;;5086639;28;20039;-62
2022/12/29 08:42:33;;;;;;;14.65;3.22;;;;;;;;;;5092110;28;20504;-64
2022/12/29 08:44:59;;;;;;;14.90;3.17;;;;;;;;;;5088579;28;20463;-63
2022/12/29 08:47:26;;;;;;;14.85;3.13;;;;;;;;;;5068511;28;20048;-63
2022/12/29 08:49:52;;;;;;;18.85;3.72;;;;;;;;;;5088592;28;20127;-65
2022/12/29 08:52:18;;;;;;;13.10;2.92;;;;;;;;;;5073089;28;20040;-65
2022/12/29 08:54:44;;;;;;;12.23;2.67;;;;;;;;;;5071816;28;20035;-64
2022/12/29 08:57:10;;;;;;;18.10;3.72;;;;;;;;;;5088670;28;20118;-64
2022/12/29 08:59:35;;;;;;;18.50;2.70;;;10.20;99.90;;;;;;5071352;28;20044;-64
2022/12/29 09:02:01;;;;;;;14.98;3.50;;;;;;;;;;5093455;28;20082;-65
2022/12/29 09:04:28;;;;;;;18.13;3.90;;;;;;;;;;5093462;28;20393;-64
2022/12/29 09:06:54;;;;;;;11.40;2.58;;;;;;;;;;5075436;28;20051;-65
2022/12/29 09:09:20;;;;;;;14.93;2.95;;;9.90;99.90;;;;;;5088982;28;20570;-64
2022/12/29 09:11:46;;;;;;;11.27;2.95;;;9.90;99.90;;;;;;5090982;28;20065;-62
2022/12/29 09:14:12;;;;;;;10.30;2.60;;;;;;;;;;5097066;28;20075;-64
2022/12/29 09:16:38;;;;;;;10.65;2.67;;;;;;;;;;5076684;28;20158;-63
2022/12/29 09:19:04;;;;;;;14.00;3.30;;;9.90;99.90;;;;;;5077213;28;20073;-64
2022/12/29 09:21:30;;;;;;;14.85;2.88;;;;;;;;;;5091095;28;20619;-63
2022/12/29 09:23:56;;;;;;;14.63;3.22;;;9.90;99.90;;;;;;5077773;28;20075;-63
2022/12/29 09:26:22;;;;;;;12.23;2.85;;;;;;;;;;5094226;28;20047;-63
2022/12/29 09:28:48;;;;;;;12.43;3.95;;;;;;;;;;5087683;28;20047;-63
2022/12/29 09:31:14;;;;;;;18.23;3.20;;;;;;;;;;5074162;28;20493;-65
2022/12/29 09:33:40;;;;;;;16.13;2.97;;;;;;;;;;5074324;28;20117;-64
2022/12/29 09:36:06;;;;;;;14.63;2.50;;;10.20;99.90;;;;;;5074311;28;20405;-65
2022/12/29 09:38:32;;;;;;;16.60;2.97;;;;;;;;;;5077702;28;20070;-65
2022/12/29 09:41:06;;;;;;;10.90;2.88;;;;;;;;;;5073684;28;20101;-64
2022/12/29 09:43:45;;;;;;;17.17;2.88;;;;;;;;;;5071366;28;20051;-64
2022/12/29 09:46:19;;;;;;;12.15;3.13;;;;;;;;;;5089057;28;20044;-64
2022/12/29 09:48:50;;;;;;;15.55;2.50;;;9.90;99.90;;;;;;5068843;28;20093;-62
2022/12/29 09:51:19;;;;;;;15.55;3.20;;;;;;;;;;5070314;28;20123;-64
2022/12/29 09:53:58;;;;;;;18.45;3.47;;;9.50;99.90;;;;;;5089127;28;20036;-64
2022/12/29 09:56:25;;;;;;;13.55;3.13;;;;;;;;;;5088799;28;20040;-64
2022/12/29 09:59:00;;;;;;;18.42;5.82;;;;;;;;;;5084054;28;20059;-63
2022/12/29 10:01:38;;;;;;;18.60;3.40;;;;;;;;;;5086217;28;20244;-64
2022/12/29 10:04:05;;;;;;;14.68;3.03;;;;;;;;;;5090701;28;20442;-64
2022/12/29 10:06:40;;;;;;;14.10;2.83;;;;;;;;;;5090828;28;20047;-64
2022/12/29 10:09:14;;;;;;;14.32;2.80;;;;;;;;;;5072170;28;20122;-65
2022/12/29 10:11:58;;;;;;;13.13;2.58;;;;;;;;;;5072266;28;20101;-63
2022/12/29 10:14:36;;;;;;;10.80;2.95;;;9.60;99.90;;;;;;5095350;28;20051;-64
2022/12/29 10:17:20;;;;;;;10.32;2.47;;;;;;;;;;5074092;28;20040;-64
2022/12/29 10:19:55;;;;;;;14.00;2.40;;;;;;;;;;5093524;28;20042;-64
2022/12/29 10:22:39;;;;;;;16.48;2.70;;;;;;;;;;5094551;28;20142;-64
2022/12/29 10:25:14;;;;;;;13.60;2.90;;;;;;;;;;5094496;28;20048;-64
2022/12/29 10:27:40;;;;;;;10.93;2.28;;;;;;;;;;5082211;28;20575;-65
2022/12/29 10:30:13;;;;;;;12.43;2.78;;;9.50;99.90;;;;;;5074160;28;20072;-64
2022/12/29 10:32:42;;;;;;;14.38;3.47;;;;;;;;;;5072463;28;20583;-63
2022/12/29 10:35:16;;;;;;;17.20;2.88;;;;;;;;;;5070784;28;20425;-61
2022/12/29 10:38:02;;;;;;;13.77;3.58;;;;;;;;;;5071721;28;20044;-63
2022/12/29 10:40:43;;;;;;;14.10;2.63;;;9.10;99.90;;;;;;5064187;28;20130;-64
2022/12/29 10:43:26;;;;;;;12.10;2.10;;;;;;;;;;5068817;28;20041;-63
2022/12/29 10:45:54;;;;;;;14.35;3.13;;;9.30;99.90;;;;;;5071382;28;20072;-62
2022/12/29 10:48:22;;;;;;;13.95;2.53;;;;;;;;;;5069745;28;20144;-63
2022/12/29 10:50:49;;;;;;;11.25;2.60;;;9.20;99.90;;;;;;5073767;28;20418;-65
2022/12/29 10:53:19;;;;;;;14.95;2.65;;;;;;;;;;5072351;28;20036;-64
2022/12/29 10:55:46;;;;;;;10.55;2.75;;;;;;;;;;5068003;28;20435;-64
2022/12/29 10:58:14;;;;;;;14.07;3.05;;;;;;;;;;5072851;28;20050;-63
2022/12/29 11:00:40;;;;;;;11.65;2.28;;;;;;;;;;5069589;28;20075;-63
2022/12/29 11:03:18;;;;;;;7.18;2.20;;;;;;;;;;5070342;28;20048;-63
2022/12/29 11:05:50;;;;;;;11.02;2.42;;;;;;;;;;5068630;28;20032;-63
2022/12/29 11:08:26;;;;;;;16.50;2.97;;;;;;;;;;5061141;28;20127;-64
2022/12/29 11:11:00;;;;;;;12.05;2.08;;;;;;;;;;5061803;28;20087;-64
2022/12/29 11:13:29;;;;;;;11.25;2.45;;;9.40;99.90;;;;;;5063711;28;20060;-63
2022/12/29 11:15:55;;;;;;;19.60;3.25;;;;;;;;;;5066051;28;20047;-62
2022/12/29 11:18:32;;;;;;;13.93;2.95;;;;;;;;;;5063588;28;20179;-63
2022/12/29 11:21:00;;;;;;;10.60;3.28;;;;;;;;;;5045078;28;20530;-64
2022/12/29 11:23:35;;;;;;;10.40;3.72;;;;;;;;;;5065212;28;20101;-64
2022/12/29 11:26:09;;;;;;;23.20;3.83;;;;;;;;;;5063946;28;20041;-64
2022/12/29 11:28:34;;;;;;;16.48;3.90;;;9.60;99.90;;;;;;5065739;28;20048;-64
2022/12/29 11:31:02;;;;;;;16.27;3.70;;;;;;;;;;5072395;28;20105;-63
2022/12/29 11:33:29;;;;;;;21.33;4.95;;;;;;;;;;5072482;28;20431;-64
2022/12/29 11:35:59;;;;;;;17.17;3.17;;;;;;;;;;5069845;28;20461;-64
2022/12/29 11:38:36;;;;;;;17.25;3.53;;;9.70;99.90;;;;;;5072376;28;20047;-65
2022/12/29 11:41:02;;;;;;;20.55;4.38;;;;;;;;;;5070095;28;20044;-65
2022/12/29 11:43:33;;;;;;;19.02;4.85;;;;;;;;;;5072446;28;20044;-64
2022/12/29 11:46:00;;;;;;;20.55;3.78;;;;;;;;;;5092425;28;20054;-63
2022/12/29 11:48:27;;;;;;;25.83;3.88;;;;;;;;;;5091423;28;20040;-63
2022/12/29 11:51:00;;;;;;;29.60;4.35;;;;;;;;;;5094121;28;20074;-63
2022/12/29 11:53:32;;;;;;;19.30;3.70;;;;;;;;;;5098208;28;20043;-63
2022/12/29 11:56:01;;;;;;;25.88;5.15;;;;;;;;;;5066707;28;20118;-65
2022/12/29 11:58:32;;;;;;;18.23;4.13;;;;;;;;;;5069527;28;20039;-64
2022/12/29 12:00:59;;;;;;;25.85;4.13;;;;;;;;;;5075306;28;20066;-63
2022/12/29 12:03:27;;;;;;;17.70;3.38;;;10.30;99.90;;;;;;5074489;28;20043;-62
2022/12/29 12:05:54;;;;;;;19.00;4.15;;;;;;;;;;5092683;28;20039;-62
2022/12/29 12:08:34;;;;;;;14.68;4.05;;;;;;;;;;5098244;28;20096;-63
2022/12/29 12:11:15;;;;;;;18.83;3.70;;;10.30;99.90;;;;;;5095368;28;20058;-64
2022/12/29 12:13:41;;;;;;;18.80;3.10;;;;;;;;;;5073819;28;20036;-63
2022/12/29 12:16:15;;;;;;;22.52;3.97;;;;;;;;;;5077824;28;20486;-63
2022/12/29 12:18:58;;;;;;;23.70;5.25;;;10.60;99.90;;;;;;5092814;28;20031;-63
2022/12/29 12:21:41;;;;;;;23.48;4.00;;;10.80;99.90;;;;;;5070744;28;20048;-63
2022/12/29 12:24:32;;;;;;;20.27;4.38;;;;;;;;;;5083424;28;20055;-63
2022/12/29 12:27:19;;;;;;;24.13;4.20;;;;;;;;;;5069598;28;20052;-63
2022/12/29 12:30:19;;;;;;;13.05;2.53;;;11.10;99.90;;;;;;5074772;28;20516;-64
2022/12/29 12:33:02;;;;;;;18.17;4.25;;;11.00;99.90;;;;;;5084706;28;20059;-64
2022/12/29 12:35:41;;;;;;;16.90;3.83;;;11.30;99.90;;;;;;5088399;28;20043;-64
2022/12/29 12:38:37;;;;;;;18.85;2.97;;;11.40;99.90;;;;;;5088627;28;20490;-63
2022/12/29 12:41:09;;;;;;;13.85;3.85;;;;;;;;;;5090506;28;20461;-64
2022/12/29 12:43:35;;;;;;;15.82;2.67;;;;;;;;;;5078212;28;20136;-64
2022/12/29 12:46:14;;;;;;;16.83;3.25;;;11.80;99.90;;;;;;5076174;28;20052;-65
2022/12/29 12:49:07;;;;;;;17.20;3.10;;;11.80;99.90;;;;;;5065560;28;20080;-63
2022/12/29 12:51:35;;;;;;;16.50;3.63;;;11.50;99.90;;;;;;5086615;28;20067;-64
2022/12/29 12:54:11;;;;;;;16.83;2.65;;;11.60;99.90;;;;;;5071787;28;20040;-64
2022/12/29 12:57:08;;;;;;;14.85;2.97;;;11.60;99.90;;;;;;5089819;28;20047;-63
2022/12/29 12:59:57;;;;;;;14.18;3.10;;;11.60;99.90;;;;;;5090992;28;20040;-64
2022/12/29 13:02:32;;;;;;;11.77;2.65;;;11.50;99.90;;;;;;5089738;28;20166;-64
2022/12/29 13:05:19;;;;;;;19.17;2.80;;;11.60;99.90;;;;;;5073738;28;20047;-64
2022/12/29 13:08:04;;;;;;;14.05;2.60;;;11.40;99.90;;;;;;5072334;28;20163;-64
2022/12/29 13:10:54;;;;;;;10.87;2.93;;;11.30;99.90;;;;;;5094104;28;20442;-65
2022/12/29 13:13:53;;;;;;;12.35;2.35;;;11.10;99.90;;;;;;5090979;28;20043;-64
2022/12/29 13:16:38;;;;;;;10.02;2.17;;;;;;;;;;5077357;28;20062;-65
2022/12/29 13:19:04;;;;;;;15.25;2.42;;;;;;;;;;5085250;28;20043;-65
2022/12/29 13:21:54;;;;;;;10.57;1.95;;;10.80;99.90;;;;;;5068730;28;20047;-64
2022/12/29 13:24:36;;;;;;;8.70;2.15;;;;;;;;;;5067166;28;20093;-64
2022/12/29 13:27:23;;;;;;;16.23;3.08;;;10.90;99.90;;;;;;5066999;28;20050;-63
2022/12/29 13:30:01;;;;;;;10.43;2.67;;;10.80;99.90;;;;;;5068297;28;20139;-63
2022/12/29 13:33:05;;;;;;;11.15;2.40;;;10.70;99.90;;;;;;5066296;28;20079;-64
2022/12/29 13:35:50;;;;;;;13.65;2.30;;;;;;;;;;5057314;28;20060;-64
2022/12/29 13:38:18;;;;;;;10.32;2.65;;;10.70;99.90;;;;;;5049431;28;20043;-63
2022/12/29 13:40:47;;;;;;;12.40;2.45;;;;;;;;;;5066297;28;20082;-63
2022/12/29 13:43:14;;;;;;;11.15;3.38;;;;;;;;;;5084631;28;20075;-62
2022/12/29 13:45:41;;;;;;;15.43;3.20;;;;;;;;;;5083050;28;20048;-63
2022/12/29 13:48:15;;;;;;;11.20;3.25;;;10.70;99.90;;;;;;5068161;28;20135;-65
2022/12/29 13:50:41;;;;;;;12.40;3.25;;;;;;;;;;5084887;28;20401;-64
2022/12/29 13:53:40;;;;;;;13.25;3.75;;;10.30;99.90;;;;;;5084046;28;20040;-64
2022/12/29 13:56:20;;;;;;;20.05;3.72;;;10.30;99.90;;;;;;5080418;28;20047;-64
2022/12/29 13:58:46;;;;;;;11.82;2.92;;;;;;;;;;5082771;28;20771;-63
2022/12/29 14:01:27;;;;;;;10.23;2.58;;;10.00;99.90;;;;;;5074008;28;20047;-64
2022/12/29 14:03:55;;;;;;;12.07;2.50;;;10.10;99.90;;;;;;5069296;28;20071;-62
2022/12/29 14:06:28;;;;;;;12.18;2.92;;;;;;;;;;5070985;28;20119;-63
2022/12/29 14:08:56;;;;;;;19.63;2.65;;;;;;;;;;5071529;28;20466;-63
2022/12/29 14:11:27;;;;;;;14.80;3.45;;;;;;;;;;5069808;28;20075;-66
2022/12/29 14:13:53;;;;;;;15.02;2.90;;;;;;;;;;5074597;28;20075;-64
2022/12/29 14:16:26;;;;;;;11.45;2.78;;;;;;;;;;5061479;28;21016;-64
2022/12/29 14:18:54;;;;;;;12.38;3.22;;;;;;;;;;5072638;28;20040;-64
2022/12/29 14:21:22;;;;;;;17.23;3.63;;;;;;;;;;5061587;28;20044;-63
2022/12/29 14:23:50;;;;;;;13.63;2.88;;;9.40;99.90;;;;;;5075434;28;20284;-63
2022/12/29 14:26:19;;;;;;;12.25;2.88;;;;;;;;;;5098839;28;20099;-64
2022/12/29 14:28:47;;;;;;;18.65;3.50;;;;;;;;;;5098092;28;20064;-63
2022/12/29 14:31:18;;;;;;;14.65;3.00;;;9.30;99.90;;;;;;5071895;28;20047;-64
2022/12/29 14:34:03;;;;;;;6.75;2.20;;;;;;;;;;5087632;28;20522;-64
2022/12/29 14:36:37;;;;;;;11.38;2.30;;;;;;;;;;5086479;28;20089;-63
2022/12/29 14:39:04;;;;;;;8.38;1.98;;;9.10;99.90;;;;;;5086684;28;20081;-64
2022/12/29 14:41:37;;;;;;;7.43;1.88;;;;;;;;;;5089420;28;20090;-65
2022/12/29 14:44:18;;;;;;;13.18;3.95;;;9.20;99.90;;;;;;5072585;28;20451;-65
2022/12/29 14:46:48;;;;;;;17.75;2.90;;;9.00;99.90;;;;;;5075264;28;20100;-64
2022/12/29 14:49:19;;;;;;;11.10;2.50;;;;;;;;;;5088237;28;20109;-64
2022/12/29 14:51:46;;;;;;;13.63;2.03;;;9.20;99.90;;;;;;5075495;28;20040;-64
2022/12/29 14:54:31;;;;;;;10.23;1.95;;;9.20;99.90;;;;;;5074066;28;20508;-63